Time;durP1;ratioP1;P1;durP2;ratioP2;P2;SDS_P1;SDS_P2;PMS_P1;PMS_P2;Temp;Humidity;BMP_temperature;BMP_pressure;BME280_temperature;BME280_humidity;BME280_pressure;Samples;Min_cycle;Max_cycle;Signal;HPM_P1;HPM_P2
2022/08/28 00:00:27;;;;;;;4.90;3.30;;;21.60;99.90;;;;;;1051179;28;20054;-70
2022/08/28 00:00:58;;;;;;;4.72;2.88;;;21.60;99.90;;;;;;1050855;28;20266;-69
2022/08/28 00:01:29;;;;;;;4.40;3.10;;;21.60;99.90;;;;;;1046551;28;20383;-69
2022/08/28 00:01:59;;;;;;;3.65;2.63;;;21.60;99.90;;;;;;1046783;28;20016;-70
2022/08/28 00:02:32;;;;;;;4.07;2.43;;;21.60;99.90;;;;;;1046973;28;20028;-69
2022/08/28 00:03:03;;;;;;;3.67;2.75;;;21.60;99.90;;;;;;1051399;28;20403;-69
2022/08/28 00:03:35;;;;;;;4.82;2.67;;;21.60;99.90;;;;;;1055717;28;20107;-70
2022/08/28 00:04:06;;;;;;;5.72;3.17;;;21.60;99.90;;;;;;1055173;28;20146;-69
2022/08/28 00:04:36;;;;;;;4.60;3.00;;;21.60;99.90;;;;;;1055490;28;20068;-70
2022/08/28 00:05:09;;;;;;;6.40;3.17;;;21.60;99.90;;;;;;1050660;28;20256;-69
2022/08/28 00:05:41;;;;;;;5.97;2.70;;;21.60;99.90;;;;;;1046842;28;20028;-69
2022/08/28 00:06:11;;;;;;;3.95;2.72;;;21.60;99.90;;;;;;1046528;28;20066;-69
2022/08/28 00:06:42;;;;;;;4.77;2.90;;;21.60;99.90;;;;;;1051656;28;20431;-69
2022/08/28 00:07:13;;;;;;;6.10;3.40;;;21.60;99.90;;;;;;1055184;28;20012;-69
2022/08/28 00:07:43;;;;;;;4.67;3.13;;;21.60;99.90;;;;;;1059722;28;20015;-68
2022/08/28 00:08:15;;;;;;;6.30;2.67;;;21.60;99.90;;;;;;1054720;28;20019;-69
2022/08/28 00:08:46;;;;;;;4.97;2.58;;;21.60;99.90;;;;;;1051264;28;20455;-70
2022/08/28 00:09:17;;;;;;;5.50;3.10;;;21.60;99.90;;;;;;1050740;28;20475;-70
2022/08/28 00:09:48;;;;;;;4.85;3.17;;;21.60;99.90;;;;;;1051039;28;20012;-70
2022/08/28 00:10:20;;;;;;;5.83;3.60;;;21.60;99.90;;;;;;1050744;28;20070;-69
2022/08/28 00:10:51;;;;;;;5.53;3.53;;;21.60;99.90;;;;;;1051201;28;20027;-68
2022/08/28 00:11:22;;;;;;;5.47;3.60;;;21.50;99.90;;;;;;1051214;28;20395;-69
2022/08/28 00:11:53;;;;;;;5.45;3.30;;;21.50;99.90;;;;;;1055633;28;20455;-69
2022/08/28 00:12:25;;;;;;;5.05;2.83;;;21.50;99.90;;;;;;1055645;28;20467;-69
2022/08/28 00:12:57;;;;;;;5.05;3.17;;;21.50;99.90;;;;;;1055554;28;20038;-70
2022/08/28 00:13:27;;;;;;;4.25;2.72;;;21.50;99.90;;;;;;1055385;28;20046;-69
2022/08/28 00:13:58;;;;;;;4.10;2.93;;;21.50;99.90;;;;;;1055582;28;20110;-69
2022/08/28 00:14:28;;;;;;;4.63;3.20;;;21.50;99.90;;;;;;1050704;28;20021;-70
2022/08/28 00:14:59;;;;;;;6.53;3.10;;;21.50;99.90;;;;;;1051009;28;20091;-71
2022/08/28 00:15:34;;;;;;;5.10;3.37;;;21.50;99.90;;;;;;1051046;28;20131;-70
2022/08/28 00:16:05;;;;;;;5.88;3.10;;;21.50;99.90;;;;;;1051918;28;20052;-69
2022/08/28 00:16:36;;;;;;;5.10;3.28;;;21.50;99.90;;;;;;1051683;28;20125;-70
2022/08/28 00:17:06;;;;;;;6.60;3.30;;;21.50;99.90;;;;;;1052833;28;20114;-68
2022/08/28 00:17:38;;;;;;;4.67;2.90;;;21.50;99.90;;;;;;1051694;28;20056;-68
2022/08/28 00:18:09;;;;;;;5.93;3.38;;;21.50;99.90;;;;;;1047378;28;20020;-69
2022/08/28 00:18:39;;;;;;;5.20;3.00;;;21.50;99.90;;;;;;1047731;28;20059;-69
2022/08/28 00:19:11;;;;;;;4.80;3.10;;;21.50;99.90;;;;;;1047872;28;20012;-69
2022/08/28 00:19:41;;;;;;;6.10;3.53;;;21.50;99.90;;;;;;1052182;28;20017;-69
2022/08/28 00:20:14;;;;;;;7.97;2.97;;;21.50;99.90;;;;;;1056125;28;20107;-69
2022/08/28 00:20:45;;;;;;;4.22;2.75;;;21.50;99.90;;;;;;1056279;28;20016;-71
2022/08/28 00:21:16;;;;;;;5.85;3.88;;;21.50;99.90;;;;;;1060123;27;20545;-68
2022/08/28 00:21:47;;;;;;;5.37;3.50;;;21.50;99.90;;;;;;1060219;27;20019;-69
2022/08/28 00:22:17;;;;;;;6.20;3.20;;;21.50;99.90;;;;;;1060039;27;20019;-69
2022/08/28 00:22:49;;;;;;;6.80;3.23;;;21.50;99.90;;;;;;1060137;27;20105;-70
2022/08/28 00:23:20;;;;;;;4.22;3.25;;;21.50;99.90;;;;;;1056223;28;20019;-70
2022/08/28 00:23:52;;;;;;;7.60;3.30;;;21.50;99.90;;;;;;1056292;28;20414;-70
2022/08/28 00:24:23;;;;;;;4.75;3.13;;;21.50;99.90;;;;;;1051813;28;20040;-69
2022/08/28 00:24:53;;;;;;;4.80;3.50;;;21.50;99.90;;;;;;1047399;28;20020;-69
2022/08/28 00:25:26;;;;;;;4.80;3.03;;;21.50;99.90;;;;;;1051456;28;20118;-69
2022/08/28 00:25:57;;;;;;;5.90;3.15;;;21.40;99.90;;;;;;1051902;28;20025;-70
2022/08/28 00:28:10;;;;;;;6.00;3.58;;;21.40;99.90;;;;;;1056397;28;20064;-69
2022/08/28 00:28:40;;;;;;;6.72;3.70;;;21.40;99.90;;;;;;1056228;28;20865;-69
2022/08/28 00:29:11;;;;;;;5.50;3.13;;;21.40;99.90;;;;;;1051516;28;20690;-69
2022/08/28 00:29:41;;;;;;;5.73;3.23;;;21.40;99.90;;;;;;1051818;28;20020;-69
2022/08/28 00:30:12;;;;;;;4.43;3.00;;;21.40;99.90;;;;;;1051615;28;20016;-69
2022/08/28 00:30:48;;;;;;;5.57;2.97;;;21.40;99.90;;;;;;1052025;28;20024;-69
2022/08/28 00:31:19;;;;;;;5.30;3.20;;;21.40;99.90;;;;;;1056174;28;20019;-70
2022/08/28 00:31:50;;;;;;;5.80;3.37;;;21.40;99.90;;;;;;1056247;28;20030;-70
2022/08/28 00:32:24;;;;;;;5.50;3.40;;;21.40;99.90;;;;;;1056300;28;20695;-69
2022/08/28 00:32:57;;;;;;;4.90;3.15;;;21.40;99.90;;;;;;1056174;28;20022;-69
2022/08/28 00:33:32;;;;;;;4.78;3.00;;;21.40;99.90;;;;;;1055825;28;20012;-69
2022/08/28 00:34:03;;;;;;;5.18;2.60;;;21.40;99.90;;;;;;1056358;28;20007;-69
2022/08/28 00:34:34;;;;;;;5.05;3.10;;;21.40;99.90;;;;;;1056323;28;20477;-69
2022/08/28 00:35:05;;;;;;;4.90;3.50;;;21.40;99.90;;;;;;1056556;28;20592;-69
2022/08/28 00:35:39;;;;;;;5.70;2.80;;;21.40;99.90;;;;;;1056016;28;20024;-70
2022/08/28 00:36:10;;;;;;;5.53;2.92;;;21.40;99.90;;;;;;1056175;28;20011;-69
2022/08/28 00:36:40;;;;;;;6.83;3.17;;;21.40;99.90;;;;;;1051788;28;20020;-70
2022/08/28 00:37:11;;;;;;;5.20;2.90;;;21.40;99.90;;;;;;1051537;28;20017;-69
2022/08/28 00:37:41;;;;;;;5.17;2.80;;;21.40;99.90;;;;;;1051492;28;20024;-71
2022/08/28 00:38:13;;;;;;;4.07;3.10;;;21.40;99.90;;;;;;1051468;28;20084;-69
2022/08/28 00:38:43;;;;;;;7.88;3.20;;;21.40;99.90;;;;;;1056321;28;20458;-70
2022/08/28 00:39:14;;;;;;;5.13;3.30;;;21.30;99.90;;;;;;1056165;28;20584;-69
2022/08/28 00:39:45;;;;;;;5.00;3.37;;;21.30;99.90;;;;;;1056348;28;20011;-69
2022/08/28 00:40:18;;;;;;;5.23;3.10;;;21.30;99.90;;;;;;1051483;28;20116;-70
2022/08/28 00:40:51;;;;;;;4.82;3.00;;;21.30;99.90;;;;;;1051579;28;20024;-70
2022/08/28 00:41:22;;;;;;;5.40;3.42;;;21.30;99.90;;;;;;1051777;28;20516;-70
2022/08/28 00:41:52;;;;;;;6.10;3.43;;;21.30;99.90;;;;;;1052429;28;20589;-69
2022/08/28 00:42:23;;;;;;;6.17;3.43;;;21.30;99.90;;;;;;1055801;28;20525;-70
2022/08/28 00:42:54;;;;;;;3.90;3.10;;;21.30;99.90;;;;;;1051540;28;20111;-71
2022/08/28 00:43:40;;;;;;;5.20;3.53;;;21.30;99.90;;;;;;1051706;28;20692;-69
2022/08/28 00:44:17;;;;;;;5.43;3.10;;;21.30;99.90;;;;;;1050926;28;20722;-68
2022/08/28 00:44:47;;;;;;;6.30;3.53;;;21.30;99.90;;;;;;1051161;28;20105;-69
2022/08/28 00:45:19;;;;;;;6.17;3.40;;;21.30;99.90;;;;;;1051929;28;20074;-69
2022/08/28 00:45:50;;;;;;;5.40;3.70;;;21.30;99.90;;;;;;1051792;28;20400;-68
2022/08/28 00:46:22;;;;;;;4.63;3.07;;;21.30;99.90;;;;;;1056101;28;20662;-68
2022/08/28 00:46:55;;;;;;;5.43;3.05;;;21.30;99.90;;;;;;1051760;28;20189;-69
2022/08/28 00:47:27;;;;;;;6.25;3.38;;;21.30;99.90;;;;;;1051699;28;20020;-68
2022/08/28 00:47:57;;;;;;;4.47;2.67;;;21.30;99.90;;;;;;1051643;28;20020;-69
2022/08/28 00:48:29;;;;;;;5.63;3.37;;;21.30;99.90;;;;;;1048073;28;20025;-68
2022/08/28 00:48:59;;;;;;;5.00;3.22;;;21.20;99.90;;;;;;1047445;28;20746;-69
2022/08/28 00:49:34;;;;;;;5.03;2.93;;;21.20;99.90;;;;;;1047225;28;20482;-69
2022/08/28 00:50:08;;;;;;;4.95;3.15;;;21.20;99.90;;;;;;1048430;28;20008;-68
2022/08/28 00:52:19;;;;;;;6.07;3.80;;;21.20;99.90;;;;;;1054935;28;20569;-70
2022/08/28 00:52:55;;;;;;;5.63;3.50;;;21.20;99.90;;;;;;1049084;28;20066;-69
2022/08/28 00:53:28;;;;;;;6.03;3.80;;;21.20;99.90;;;;;;1047257;28;20013;-69
2022/08/28 00:53:59;;;;;;;6.88;3.28;;;21.20;99.90;;;;;;1047590;28;20021;-69
2022/08/28 00:54:32;;;;;;;4.93;3.47;;;21.20;99.90;;;;;;1042880;28;20028;-69
2022/08/28 00:55:10;;;;;;;7.07;3.70;;;21.20;99.90;;;;;;1044241;28;20128;-69
2022/08/28 00:55:42;;;;;;;5.32;3.45;;;21.20;99.90;;;;;;1047480;28;20052;-69
2022/08/28 00:56:15;;;;;;;5.03;3.13;;;21.20;99.90;;;;;;1050874;28;20395;-69
2022/08/28 00:56:48;;;;;;;6.85;3.28;;;21.20;99.90;;;;;;1051554;28;20103;-69
2022/08/28 00:57:22;;;;;;;6.80;3.38;;;21.20;99.90;;;;;;1051642;28;20020;-70
2022/08/28 00:57:58;;;;;;;7.25;3.55;;;21.20;99.90;;;;;;1051379;28;20031;-69
2022/08/28 00:58:28;;;;;;;7.55;3.38;;;21.20;99.90;;;;;;1051758;28;20012;-70
2022/08/28 00:59:06;;;;;;;5.70;3.37;;;21.10;99.90;;;;;;1051520;28;20016;-70
2022/08/28 00:59:37;;;;;;;4.63;3.00;;;21.20;99.90;;;;;;1053316;28;20089;-69
2022/08/28 01:00:15;;;;;;;4.45;2.80;;;21.10;99.90;;;;;;1055982;28;20022;-69
2022/08/28 01:00:45;;;;;;;5.30;3.67;;;21.10;99.90;;;;;;1055921;27;20091;-69
2022/08/28 01:01:17;;;;;;;4.97;2.97;;;21.10;99.90;;;;;;1055886;28;20099;-68
2022/08/28 01:01:52;;;;;;;6.00;3.65;;;21.10;99.90;;;;;;1056312;28;20094;-68
2022/08/28 01:02:23;;;;;;;3.85;2.65;;;21.10;99.90;;;;;;1051548;28;20690;-68
2022/08/28 01:02:54;;;;;;;6.90;3.22;;;21.10;99.90;;;;;;1050513;28;20467;-68
2022/08/28 01:03:25;;;;;;;5.07;3.73;;;21.10;99.90;;;;;;1043334;28;20503;-68
2022/08/28 01:03:56;;;;;;;6.60;3.63;;;21.10;99.90;;;;;;1043376;28;20460;-68
2022/08/28 01:04:31;;;;;;;6.27;3.47;;;21.10;99.90;;;;;;1047520;28;20082;-69
2022/08/28 01:05:01;;;;;;;5.38;3.50;;;21.10;99.90;;;;;;1052349;28;20047;-69
2022/08/28 01:05:34;;;;;;;5.13;3.50;;;21.10;99.90;;;;;;1056353;28;20119;-68
2022/08/28 01:06:06;;;;;;;6.38;3.00;;;21.10;99.90;;;;;;1051399;28;20046;-69
2022/08/28 01:06:36;;;;;;;4.25;3.45;;;21.10;99.90;;;;;;1047451;28;20700;-68
2022/08/28 01:07:11;;;;;;;5.78;3.72;;;21.10;99.90;;;;;;1043056;28;20770;-68
2022/08/28 01:07:43;;;;;;;5.65;3.67;;;21.10;99.90;;;;;;1044251;28;20032;-68
2022/08/28 01:08:15;;;;;;;6.20;3.80;;;21.10;99.90;;;;;;1046909;28;20021;-68
2022/08/28 01:08:47;;;;;;;5.18;3.28;;;21.10;99.90;;;;;;1043506;28;20025;-70
2022/08/28 01:09:20;;;;;;;5.90;3.45;;;21.10;99.90;;;;;;1043236;28;20023;-68
2022/08/28 01:09:53;;;;;;;4.80;3.13;;;21.10;99.90;;;;;;1045986;28;20013;-68
2022/08/28 01:10:27;;;;;;;6.43;3.40;;;21.10;99.90;;;;;;1052542;28;20071;-69
2022/08/28 01:11:01;;;;;;;4.55;3.08;;;21.10;99.90;;;;;;1051794;28;20021;-69
2022/08/28 01:11:32;;;;;;;5.72;2.90;;;21.10;99.90;;;;;;1051372;28;20060;-69
2022/08/28 01:12:08;;;;;;;4.30;3.00;;;21.10;99.90;;;;;;1047315;28;20024;-69
2022/08/28 01:12:38;;;;;;;5.25;2.80;;;21.10;99.90;;;;;;1048849;28;20020;-69
2022/08/28 01:13:10;;;;;;;9.10;3.67;;;21.10;99.90;;;;;;1049588;28;20197;-70
2022/08/28 01:13:45;;;;;;;8.00;3.55;;;21.00;99.90;;;;;;1048024;28;20108;-68
2022/08/28 01:14:21;;;;;;;6.55;2.95;;;21.10;99.90;;;;;;1055345;28;20011;-69
2022/08/28 01:14:57;;;;;;;5.20;3.50;;;21.00;99.90;;;;;;1054555;28;20051;-69
2022/08/28 01:15:31;;;;;;;7.05;3.33;;;21.00;99.90;;;;;;1055966;28;20123;-69
2022/08/28 01:16:02;;;;;;;4.45;3.00;;;21.00;99.90;;;;;;1053353;28;20103;-69
2022/08/28 01:16:34;;;;;;;5.50;3.30;;;21.00;99.90;;;;;;1051770;28;20020;-69
2022/08/28 01:17:07;;;;;;;4.85;3.20;;;21.00;99.90;;;;;;1052015;28;20113;-69
2022/08/28 01:17:42;;;;;;;4.47;3.13;;;21.00;99.90;;;;;;1047056;28;20103;-68
2022/08/28 01:18:14;;;;;;;4.35;3.10;;;21.00;99.90;;;;;;1050541;28;20440;-69
2022/08/28 01:18:45;;;;;;;5.25;3.15;;;21.00;99.90;;;;;;1051530;28;20024;-69
2022/08/28 01:19:25;;;;;;;5.32;3.35;;;21.00;99.90;;;;;;1052438;28;20016;-69
2022/08/28 01:19:59;;;;;;;5.60;3.15;;;21.00;99.90;;;;;;1055993;28;20016;-69
2022/08/28 01:20:33;;;;;;;5.32;3.17;;;21.00;99.90;;;;;;1051521;28;20082;-70
2022/08/28 01:21:14;;;;;;;5.45;3.00;;;21.00;99.90;;;;;;1051638;28;20073;-69
2022/08/28 01:21:49;;;;;;;5.50;3.55;;;21.00;99.90;;;;;;1051746;28;20027;-70
2022/08/28 01:22:33;;;;;;;6.10;3.45;;;21.00;99.90;;;;;;1054402;28;20403;-69
2022/08/28 01:23:28;;;;;;;6.75;3.63;;;21.00;99.90;;;;;;1055847;28;20023;-70
2022/08/28 01:24:03;;;;;;;6.68;3.40;;;20.90;99.90;;;;;;1054365;28;20023;-69
2022/08/28 01:24:36;;;;;;;5.90;3.50;;;20.80;99.90;;;;;;1047374;28;20357;-69
2022/08/28 01:25:12;;;;;;;5.93;3.40;;;20.80;99.90;;;;;;1047209;28;20668;-70
2022/08/28 01:25:42;;;;;;;7.35;3.80;;;20.80;99.90;;;;;;1049977;28;20071;-67
2022/08/28 01:26:14;;;;;;;5.87;3.70;;;20.80;99.90;;;;;;1052565;28;20201;-70
2022/08/28 01:26:46;;;;;;;6.07;3.05;;;20.80;99.90;;;;;;1056111;28;20069;-69
2022/08/28 01:27:16;;;;;;;5.07;4.07;;;20.80;99.90;;;;;;1051072;28;20024;-70
2022/08/28 01:27:47;;;;;;;6.63;3.43;;;20.80;99.90;;;;;;1051698;28;20103;-70
2022/08/28 01:28:18;;;;;;;5.07;3.40;;;20.80;99.90;;;;;;1051339;28;20019;-69
2022/08/28 01:28:49;;;;;;;4.87;3.00;;;20.90;99.90;;;;;;1051737;28;20093;-69
2022/08/28 01:29:20;;;;;;;6.55;3.17;;;20.80;99.90;;;;;;1055862;28;20568;-68
2022/08/28 01:29:50;;;;;;;4.47;3.33;;;20.80;99.90;;;;;;1056065;28;20532;-68
2022/08/28 01:30:23;;;;;;;7.67;3.60;;;20.80;99.90;;;;;;1053378;28;20015;-68
2022/08/28 01:30:53;;;;;;;8.05;4.43;;;20.90;99.90;;;;;;1050864;28;20069;-68
2022/08/28 01:31:26;;;;;;;6.40;3.53;;;20.90;99.90;;;;;;1051244;28;20024;-69
2022/08/28 01:31:58;;;;;;;5.30;3.72;;;20.80;99.90;;;;;;1047213;28;20028;-68
2022/08/28 01:32:33;;;;;;;7.63;4.38;;;20.80;99.90;;;;;;1046868;28;20008;-68
2022/08/28 01:33:04;;;;;;;7.72;3.53;;;20.80;99.90;;;;;;1047413;28;20027;-69
2022/08/28 01:33:34;;;;;;;7.07;3.93;;;20.90;99.90;;;;;;1048111;28;20032;-68
2022/08/28 01:34:06;;;;;;;5.00;3.23;;;20.80;99.90;;;;;;1050974;28;20119;-68
2022/08/28 01:34:36;;;;;;;5.07;3.58;;;20.80;99.90;;;;;;1051182;28;20046;-69
2022/08/28 01:35:12;;;;;;;5.97;3.20;;;20.80;99.90;;;;;;1051257;28;20081;-69
2022/08/28 01:35:46;;;;;;;7.88;3.60;;;20.80;99.90;;;;;;1051261;28;20717;-69
2022/08/28 01:36:17;;;;;;;7.55;4.07;;;20.80;99.90;;;;;;1051142;28;20114;-69
2022/08/28 01:36:48;;;;;;;4.65;3.13;;;20.80;99.90;;;;;;1052619;28;20479;-70
2022/08/28 01:37:19;;;;;;;7.67;3.60;;;20.80;99.90;;;;;;1055726;28;20462;-69
2022/08/28 01:37:50;;;;;;;8.47;3.50;;;20.80;99.90;;;;;;1055255;28;20011;-69
2022/08/28 01:38:20;;;;;;;5.80;3.38;;;20.80;99.90;;;;;;1053993;28;20051;-69
2022/08/28 01:39:12;;;;;;;7.10;3.57;;;20.80;99.90;;;;;;1046975;28;20115;-69
2022/08/28 01:39:42;;;;;;;5.32;2.90;;;20.80;99.90;;;;;;1048152;28;20194;-69
2022/08/28 01:40:19;;;;;;;4.77;3.37;;;20.80;99.90;;;;;;1051226;28;20085;-69
2022/08/28 01:40:52;;;;;;;6.50;3.25;;;20.80;99.90;;;;;;1051103;28;20012;-69
2022/08/28 01:41:22;;;;;;;7.75;3.85;;;20.80;99.90;;;;;;1042790;28;20068;-69
2022/08/28 01:41:54;;;;;;;5.37;3.47;;;20.80;99.90;;;;;;1042808;28;20009;-69
2022/08/28 01:42:25;;;;;;;5.30;3.60;;;20.80;99.90;;;;;;1043534;28;20012;-69
2022/08/28 01:43:25;;;;;;;4.40;3.30;;;20.80;99.90;;;;;;1050358;28;20027;-69
2022/08/28 01:43:55;;;;;;;5.50;3.22;;;20.80;99.90;;;;;;1053829;28;20032;-70
2022/08/28 01:44:26;;;;;;;4.70;3.00;;;20.80;99.90;;;;;;1053253;28;20093;-69
2022/08/28 01:44:57;;;;;;;6.15;3.28;;;20.80;99.90;;;;;;1055585;28;20015;-69
2022/08/28 01:45:28;;;;;;;4.90;3.13;;;20.80;99.90;;;;;;1054623;28;20431;-69
2022/08/28 01:46:03;;;;;;;5.83;3.97;;;20.80;99.90;;;;;;1051765;28;20020;-69
2022/08/28 01:46:33;;;;;;;4.75;3.47;;;20.80;99.90;;;;;;1055881;28;20004;-69
2022/08/28 01:47:04;;;;;;;6.03;3.33;;;20.80;99.90;;;;;;1055767;28;20042;-69
2022/08/28 01:47:34;;;;;;;6.77;3.37;;;20.80;99.90;;;;;;1055736;28;20004;-69
2022/08/28 01:48:07;;;;;;;7.40;4.03;;;20.80;99.90;;;;;;1055704;28;20019;-73
2022/08/28 01:48:42;;;;;;;5.80;3.40;;;20.80;99.90;;;;;;1055933;28;20011;-69
2022/08/28 01:49:12;;;;;;;5.93;3.58;;;20.80;99.90;;;;;;1055631;28;20865;-69
2022/08/28 01:49:44;;;;;;;6.00;3.33;;;20.80;99.90;;;;;;1056101;28;20018;-69
2022/08/28 01:50:18;;;;;;;6.95;3.88;;;20.80;99.90;;;;;;1055939;28;20004;-69
2022/08/28 01:50:49;;;;;;;6.13;3.25;;;20.80;99.90;;;;;;1051565;28;20008;-69
2022/08/28 01:51:20;;;;;;;6.65;3.50;;;20.80;99.90;;;;;;1051232;28;20008;-69
2022/08/28 01:51:50;;;;;;;4.40;3.37;;;20.70;99.90;;;;;;1051552;28;20008;-69
2022/08/28 01:52:21;;;;;;;5.97;3.27;;;20.70;99.90;;;;;;1051407;28;20017;-69
2022/08/28 01:52:51;;;;;;;5.60;3.47;;;20.70;99.90;;;;;;1055945;28;20059;-69
2022/08/28 01:53:24;;;;;;;7.17;3.67;;;20.70;99.90;;;;;;1056168;28;20019;-69
2022/08/28 01:53:55;;;;;;;4.88;3.22;;;20.70;99.90;;;;;;1055935;28;20072;-68
2022/08/28 01:54:27;;;;;;;6.93;3.70;;;20.70;99.90;;;;;;1055787;28;20061;-68
2022/08/28 01:54:58;;;;;;;5.40;3.85;;;20.70;99.90;;;;;;1052678;28;20051;-71
2022/08/28 01:55:31;;;;;;;6.97;3.23;;;20.70;99.90;;;;;;1051250;28;20060;-69
2022/08/28 01:56:06;;;;;;;6.40;3.78;;;20.70;99.90;;;;;;1047517;28;20870;-69
2022/08/28 01:56:38;;;;;;;5.18;3.40;;;20.70;99.90;;;;;;1046958;28;20054;-68
2022/08/28 01:57:09;;;;;;;4.72;3.47;;;20.70;99.90;;;;;;1048358;28;20020;-69
2022/08/28 01:57:49;;;;;;;6.40;3.13;;;20.70;99.90;;;;;;1048099;28;20033;-68
2022/08/28 01:58:20;;;;;;;7.28;3.67;;;20.70;99.90;;;;;;1047146;28;20600;-69
2022/08/28 01:58:51;;;;;;;6.00;3.50;;;20.70;99.90;;;;;;1047448;28;20103;-69
2022/08/28 01:59:22;;;;;;;6.45;4.05;;;20.70;99.90;;;;;;1048805;28;20055;-69
2022/08/28 01:59:53;;;;;;;5.30;3.40;;;20.70;99.90;;;;;;1047416;28;20147;-69
2022/08/28 02:00:26;;;;;;;4.18;3.00;;;20.70;99.90;;;;;;1047153;28;20023;-69
2022/08/28 02:00:56;;;;;;;4.65;3.13;;;20.70;99.90;;;;;;1047325;28;20035;-70
2022/08/28 02:01:27;;;;;;;4.73;3.10;;;20.70;99.90;;;;;;1047790;28;20023;-69
2022/08/28 02:01:58;;;;;;;5.20;2.90;;;20.70;99.90;;;;;;1051765;28;20023;-69
2022/08/28 02:02:30;;;;;;;4.80;3.07;;;20.70;99.90;;;;;;1051341;28;20078;-70
2022/08/28 02:03:01;;;;;;;6.00;3.13;;;20.60;99.90;;;;;;1051150;28;20043;-69
2022/08/28 02:03:32;;;;;;;6.60;3.30;;;20.60;99.90;;;;;;1051477;28;20047;-69
2022/08/28 02:04:03;;;;;;;6.17;3.40;;;20.60;99.90;;;;;;1047676;28;20110;-70
2022/08/28 02:04:34;;;;;;;6.80;3.40;;;20.60;99.90;;;;;;1051394;28;20020;-70
2022/08/28 02:05:05;;;;;;;4.80;3.20;;;20.60;99.90;;;;;;1051260;28;20020;-69
2022/08/28 02:05:37;;;;;;;6.47;3.72;;;20.60;99.90;;;;;;1051872;28;20024;-69
2022/08/28 02:06:08;;;;;;;4.70;3.03;;;20.60;99.90;;;;;;1055785;28;20069;-69
2022/08/28 02:06:40;;;;;;;5.75;3.80;;;20.60;99.90;;;;;;1051309;28;20024;-69
2022/08/28 02:07:11;;;;;;;5.50;3.40;;;20.60;99.90;;;;;;1051215;28;20099;-69
2022/08/28 02:07:41;;;;;;;3.17;2.63;;;20.60;99.90;;;;;;1051477;28;20110;-69
2022/08/28 02:08:12;;;;;;;4.67;2.93;;;20.60;99.90;;;;;;1051061;28;20069;-69
2022/08/28 02:08:43;;;;;;;5.47;3.15;;;20.60;99.90;;;;;;1051500;28;20044;-70
2022/08/28 02:09:14;;;;;;;6.67;3.30;;;20.60;99.90;;;;;;1051355;28;20027;-70
2022/08/28 02:09:44;;;;;;;5.33;3.40;;;20.60;99.90;;;;;;1051873;28;20103;-69
2022/08/28 02:10:15;;;;;;;4.73;3.00;;;20.60;99.90;;;;;;1050909;28;20089;-69
2022/08/28 02:10:47;;;;;;;6.55;3.00;;;20.60;99.90;;;;;;1051489;28;20020;-69
2022/08/28 02:11:18;;;;;;;4.28;2.80;;;20.60;99.90;;;;;;1051286;28;20012;-70
2022/08/28 02:11:48;;;;;;;9.37;4.00;;;20.60;99.90;;;;;;1051805;28;20024;-70
2022/08/28 02:12:19;;;;;;;6.27;4.00;;;20.60;99.90;;;;;;1055717;28;20023;-69
2022/08/28 02:12:54;;;;;;;5.90;3.67;;;20.60;99.90;;;;;;1055982;28;20024;-68
2022/08/28 02:13:25;;;;;;;8.75;3.88;;;20.60;99.90;;;;;;1055618;28;20019;-69
2022/08/28 02:13:55;;;;;;;5.13;3.20;;;20.60;99.90;;;;;;1056132;28;20020;-69
2022/08/28 02:14:26;;;;;;;6.03;3.33;;;20.60;99.90;;;;;;1055844;28;20020;-68
2022/08/28 02:14:57;;;;;;;4.27;2.73;;;20.60;99.90;;;;;;1055734;28;20091;-69
2022/08/28 02:15:29;;;;;;;6.87;3.30;;;20.60;99.90;;;;;;1055737;28;20389;-69
2022/08/28 02:16:00;;;;;;;7.85;3.40;;;20.60;99.90;;;;;;1055843;28;20027;-69
2022/08/28 02:16:30;;;;;;;6.33;3.53;;;20.60;99.90;;;;;;1051218;28;20024;-70
2022/08/28 02:17:01;;;;;;;4.60;3.13;;;20.60;99.90;;;;;;1051281;28;20731;-69
2022/08/28 02:17:32;;;;;;;5.70;3.30;;;20.60;99.90;;;;;;1051078;28;20360;-69
2022/08/28 02:18:04;;;;;;;4.77;3.13;;;20.60;99.90;;;;;;1051500;28;20069;-69
2022/08/28 02:18:36;;;;;;;5.25;3.30;;;20.60;99.90;;;;;;1055616;28;20502;-68
2022/08/28 02:19:07;;;;;;;4.68;3.08;;;20.60;99.90;;;;;;1056159;28;20145;-69
2022/08/28 02:19:37;;;;;;;5.47;3.00;;;20.60;99.90;;;;;;1055919;28;20096;-68
2022/08/28 02:20:08;;;;;;;5.60;3.10;;;20.60;99.90;;;;;;1051093;28;20020;-69
2022/08/28 02:20:41;;;;;;;4.90;3.20;;;20.60;99.90;;;;;;1051463;28;20016;-70
2022/08/28 02:21:12;;;;;;;5.60;3.45;;;20.60;99.90;;;;;;1051139;28;20129;-68
2022/08/28 02:21:43;;;;;;;6.07;3.57;;;20.60;99.90;;;;;;1047815;28;20058;-68
2022/08/28 02:22:13;;;;;;;6.90;3.13;;;20.60;99.90;;;;;;1043714;28;20013;-68
2022/08/28 02:22:44;;;;;;;5.70;3.77;;;20.60;99.90;;;;;;1043094;28;20025;-68
2022/08/28 02:23:15;;;;;;;4.63;3.10;;;20.60;99.90;;;;;;1038959;28;20180;-68
2022/08/28 02:23:45;;;;;;;4.77;3.40;;;20.50;99.90;;;;;;1046561;28;20112;-68
2022/08/28 02:24:16;;;;;;;6.23;3.50;;;20.50;99.90;;;;;;1051384;28;20075;-69
2022/08/28 02:24:47;;;;;;;6.55;3.20;;;20.50;99.90;;;;;;1051272;28;20107;-69
2022/08/28 02:25:18;;;;;;;6.10;2.97;;;20.60;99.90;;;;;;1046931;28;20009;-69
2022/08/28 02:25:49;;;;;;;5.95;2.90;;;20.50;99.90;;;;;;1048962;28;20065;-69
2022/08/28 02:26:19;;;;;;;5.03;2.77;;;20.50;99.90;;;;;;1047009;28;20066;-68
2022/08/28 02:26:50;;;;;;;3.97;2.77;;;20.50;99.90;;;;;;1047108;28;20094;-69
2022/08/28 02:27:20;;;;;;;8.20;3.97;;;20.50;99.90;;;;;;1046866;28;20610;-69
2022/08/28 02:27:51;;;;;;;5.00;3.23;;;20.50;99.90;;;;;;1051519;28;20012;-69
2022/08/28 02:28:22;;;;;;;6.40;3.43;;;20.50;99.90;;;;;;1051420;28;20022;-69
2022/08/28 02:28:52;;;;;;;8.13;3.63;;;20.50;99.90;;;;;;1051143;28;20475;-71
2022/08/28 02:29:24;;;;;;;4.87;2.60;;;20.50;99.90;;;;;;1051093;28;20364;-69
2022/08/28 02:29:57;;;;;;;4.00;2.63;;;20.50;99.90;;;;;;1051270;28;20481;-69
2022/08/28 02:30:28;;;;;;;5.20;2.70;;;20.50;99.90;;;;;;1051658;28;20084;-69
2022/08/28 02:30:58;;;;;;;5.37;3.23;;;20.50;99.90;;;;;;1055865;28;20092;-69
2022/08/28 02:31:29;;;;;;;4.07;2.80;;;20.50;99.90;;;;;;1055678;28;20742;-69
2022/08/28 02:32:00;;;;;;;4.65;3.22;;;20.50;99.90;;;;;;1056178;28;20004;-68
2022/08/28 02:32:31;;;;;;;4.93;3.00;;;20.50;99.90;;;;;;1051619;28;20486;-69
2022/08/28 02:33:01;;;;;;;5.33;3.33;;;20.50;99.90;;;;;;1051752;28;20012;-70
2022/08/28 02:33:34;;;;;;;5.50;3.73;;;20.50;99.90;;;;;;1051598;28;20051;-70
2022/08/28 02:34:04;;;;;;;4.47;2.90;;;20.50;99.90;;;;;;1054452;28;20632;-68
2022/08/28 02:34:35;;;;;;;6.80;3.83;;;20.50;99.90;;;;;;1055442;28;20646;-69
2022/08/28 02:35:09;;;;;;;4.38;3.60;;;20.50;99.90;;;;;;1056056;28;20103;-70
2022/08/28 02:35:41;;;;;;;5.18;3.35;;;20.50;99.90;;;;;;1055747;28;20019;-69
2022/08/28 02:36:13;;;;;;;7.03;3.10;;;20.40;99.90;;;;;;1055838;28;20091;-67
2022/08/28 02:36:44;;;;;;;7.45;3.35;;;20.40;99.90;;;;;;1055833;28;20466;-69
2022/08/28 02:37:15;;;;;;;7.00;3.63;;;20.40;99.90;;;;;;1055703;28;20494;-71
2022/08/28 02:37:46;;;;;;;5.33;3.47;;;20.40;99.90;;;;;;1055532;28;20015;-69
2022/08/28 02:38:17;;;;;;;8.20;4.20;;;20.40;99.90;;;;;;1055206;28;20364;-69
2022/08/28 02:38:47;;;;;;;4.50;3.43;;;20.40;99.90;;;;;;1055944;28;20568;-69
2022/08/28 02:39:18;;;;;;;4.80;2.77;;;20.40;99.90;;;;;;1050946;28;20649;-70
2022/08/28 02:39:50;;;;;;;5.90;3.50;;;20.40;99.90;;;;;;1051266;28;20023;-70
2022/08/28 02:40:22;;;;;;;4.88;3.22;;;20.40;99.90;;;;;;1051439;28;20035;-69
2022/08/28 02:40:53;;;;;;;6.78;3.40;;;20.40;99.90;;;;;;1050966;28;20379;-69
2022/08/28 02:41:24;;;;;;;4.40;3.17;;;20.40;99.90;;;;;;1051861;28;20360;-69
2022/08/28 02:41:54;;;;;;;5.20;3.00;;;20.40;99.90;;;;;;1055653;28;20038;-69
2022/08/28 02:42:25;;;;;;;5.67;3.10;;;20.40;99.90;;;;;;1055723;28;20561;-72
2022/08/28 02:42:56;;;;;;;5.23;3.17;;;20.40;99.90;;;;;;1055838;28;20366;-69
2022/08/28 02:43:26;;;;;;;5.13;3.07;;;20.40;99.90;;;;;;1051025;28;20106;-70
2022/08/28 02:43:57;;;;;;;8.50;2.80;;;20.40;99.90;;;;;;1051084;28;20115;-69
2022/08/28 02:44:28;;;;;;;4.77;2.60;;;20.40;99.90;;;;;;1051314;28;20012;-69
2022/08/28 02:44:59;;;;;;;4.67;3.07;;;20.40;99.90;;;;;;1051165;28;20333;-70
2022/08/28 02:45:30;;;;;;;6.03;3.22;;;20.40;99.90;;;;;;1049887;28;20016;-70
2022/08/28 02:46:01;;;;;;;7.20;3.60;;;20.40;99.90;;;;;;1051415;28;20094;-69
2022/08/28 02:46:32;;;;;;;6.03;3.53;;;20.40;99.90;;;;;;1051640;28;20166;-69
2022/08/28 02:47:03;;;;;;;6.33;3.20;;;20.40;99.90;;;;;;1051603;28;20023;-70
2022/08/28 02:47:34;;;;;;;4.35;2.70;;;20.40;99.90;;;;;;1053223;28;20254;-70
2022/08/28 02:48:04;;;;;;;5.80;2.63;;;20.40;99.90;;;;;;1055869;28;20020;-70
2022/08/28 02:48:37;;;;;;;4.93;3.50;;;20.40;99.90;;;;;;1051309;28;20546;-70
2022/08/28 02:49:08;;;;;;;6.13;3.13;;;20.40;99.90;;;;;;1050102;28;20012;-70
2022/08/28 02:49:38;;;;;;;4.63;3.07;;;20.40;99.90;;;;;;1047263;28;20099;-68
2022/08/28 02:50:12;;;;;;;4.97;3.10;;;20.30;99.90;;;;;;1043028;28;20021;-68
2022/08/28 02:50:44;;;;;;;4.50;2.88;;;20.30;99.90;;;;;;1047034;28;20037;-69